createdAt,value
2018-08-31T00:00:18.578Z,19.37
2018-08-31T00:05:39.534Z,18.17
2018-08-31T00:10:36.251Z,17.90
2018-08-31T00:15:22.830Z,15.23
2018-08-31T00:20:06.220Z,14.17
2018-08-31T00:26:03.865Z,10.63
2018-08-31T00:30:58.195Z,12.23
2018-08-31T00:37:57.255Z,12.87
2018-08-31T00:44:57.327Z,9.73
2018-08-31T00:49:40.618Z,9.63
2018-08-31T00:54:24.105Z,15.87
2018-08-31T00:59:11.337Z,9.03
2018-08-31T01:03:54.658Z,9.73
2018-08-31T01:08:42.069Z,11.37
2018-08-31T01:13:25.336Z,12.57
2018-08-31T01:18:14.667Z,9.00
2018-08-31T01:22:58.059Z,8.73
2018-08-31T01:27:42.551Z,11.20
2018-08-31T01:32:26.046Z,11.50
2018-08-31T01:37:13.059Z,9.73
2018-08-31T01:41:56.762Z,8.03
2018-08-31T01:46:41.178Z,12.57
2018-08-31T01:51:24.602Z,12.57
2018-08-31T01:56:11.380Z,12.00
2018-08-31T02:00:54.780Z,11.03
2018-08-31T02:05:43.909Z,12.07
2018-08-31T02:10:27.375Z,10.30
2018-08-31T02:15:14.694Z,11.83
2018-08-31T02:19:58.088Z,13.63
2018-08-31T02:24:41.326Z,13.33
2018-08-31T02:29:24.642Z,31.07
2018-08-31T02:34:08.014Z,34.17
2018-08-31T02:38:53.111Z,34.77
2018-08-31T02:43:36.519Z,33.60
2018-08-31T02:48:23.824Z,36.03
2018-08-31T02:53:07.579Z,33.17
2018-08-31T02:57:54.045Z,41.70
2018-08-31T03:02:37.543Z,35.40
2018-08-31T03:07:21.991Z,18.30
2018-08-31T03:12:05.377Z,13.43
2018-08-31T03:16:51.919Z,12.27
2018-08-31T03:21:35.290Z,15.77
2018-08-31T03:26:22.711Z,36.97
2018-08-31T03:31:06.197Z,36.73
2018-08-31T03:35:50.567Z,33.50
2018-08-31T03:40:34.249Z,41.77
2018-08-31T03:45:18.916Z,30.67
2018-08-31T03:50:02.382Z,30.17
2018-08-31T03:54:45.873Z,30.40
2018-08-31T03:59:29.364Z,34.80
2018-08-31T04:04:12.813Z,34.93
2018-08-31T04:09:00.137Z,26.90
2018-08-31T04:13:43.591Z,30.27
2018-08-31T04:18:29.722Z,37.63
2018-08-31T04:23:14.027Z,40.50
2018-08-31T04:27:57.636Z,32.17
2018-08-31T04:32:40.982Z,31.03
2018-08-31T04:37:24.880Z,30.27
2018-08-31T04:42:08.330Z,31.10
2018-08-31T04:46:53.221Z,27.90
2018-08-31T04:51:37.020Z,30.13
2018-08-31T04:56:24.524Z,42.57
2018-08-31T05:01:08.104Z,54.90
2018-08-31T05:05:54.767Z,30.53
2018-08-31T05:10:39.169Z,31.37
2018-08-31T05:15:23.626Z,26.13
2018-08-31T05:20:06.976Z,34.40
2018-08-31T05:24:51.367Z,33.63
2018-08-31T05:29:34.765Z,28.67
2018-08-31T05:34:19.245Z,27.63
2018-08-31T05:39:02.778Z,30.17
2018-08-31T05:43:46.303Z,31.43
2018-08-31T05:48:30.721Z,30.73
2018-08-31T05:53:15.314Z,30.80
2018-08-31T05:57:58.954Z,32.17
2018-08-31T06:02:42.320Z,32.03
2018-08-31T06:07:28.779Z,31.90
2018-08-31T06:12:12.155Z,29.40
2018-08-31T06:16:56.763Z,26.23
2018-08-31T06:21:40.078Z,24.00
2018-08-31T06:26:27.383Z,23.07
2018-08-31T06:31:10.870Z,19.97
2018-08-31T06:35:55.037Z,21.23
2018-08-31T06:40:38.579Z,17.70
2018-08-31T06:45:25.710Z,16.10
2018-08-31T06:50:11.031Z,14.60
2018-08-31T06:54:54.695Z,18.50
2018-08-31T06:59:38.094Z,17.23
2018-08-31T07:04:22.420Z,13.07
2018-08-31T07:09:11.446Z,13.40
2018-08-31T07:13:54.945Z,9.28
2018-08-31T07:18:47.816Z,14.83
2018-08-31T07:23:31.410Z,16.73
2018-08-31T07:28:18.810Z,12.45
2018-08-31T07:33:02.193Z,11.55
2018-08-31T07:37:51.759Z,17.55
2018-08-31T07:42:35.028Z,14.33
2018-08-31T07:47:23.533Z,10.72
2018-08-31T07:52:07.024Z,15.83
2018-08-31T07:57:00.144Z,13.30
2018-08-31T08:01:43.322Z,13.08
2018-08-31T08:06:27.858Z,10.55
2018-08-31T08:11:11.270Z,8.28
2018-08-31T08:15:58.201Z,9.03
2018-08-31T08:20:41.586Z,14.28
2018-08-31T08:25:30.752Z,14.30
2018-08-31T08:30:14.942Z,20.32
2018-08-31T08:35:04.012Z,14.33
2018-08-31T08:39:47.420Z,15.63
2018-08-31T08:44:34.053Z,16.02
2018-08-31T08:49:17.523Z,12.58
2018-08-31T08:54:05.440Z,12.03
2018-08-31T08:58:49.756Z,12.85
2018-08-31T09:03:33.575Z,14.28
2018-08-31T09:08:18.237Z,11.57
2018-08-31T09:13:01.722Z,9.28
2018-08-31T09:17:46.283Z,10.48
2018-08-31T09:22:29.778Z,17.98
2018-08-31T09:27:17.316Z,13.55
2018-08-31T09:32:05.335Z,11.83
2018-08-31T09:36:53.429Z,10.25
2018-08-31T09:41:37.069Z,12.15
2018-08-31T09:46:26.951Z,14.70
2018-08-31T09:51:14.071Z,12.68
2018-08-31T09:55:58.941Z,14.20
2018-08-31T10:00:47.557Z,14.18
2018-08-31T10:05:34.317Z,10.85
2018-08-31T10:10:18.636Z,14.18
2018-08-31T10:15:02.247Z,15.23
2018-08-31T10:19:45.417Z,9.08
2018-08-31T10:24:31.950Z,10.55
2018-08-31T10:29:16.316Z,13.15
2018-08-31T10:34:03.495Z,10.55
2018-08-31T10:38:46.923Z,9.25
2018-08-31T10:43:30.306Z,12.00
2018-08-31T10:48:13.676Z,10.78
2018-08-31T10:52:56.951Z,11.18
2018-08-31T10:57:41.694Z,12.63
2018-08-31T11:02:25.256Z,12.82
2018-08-31T11:07:12.708Z,13.30
2018-08-31T11:11:56.105Z,12.23
2018-08-31T11:16:44.600Z,11.85
2018-08-31T11:21:28.058Z,11.70
2018-08-31T11:26:17.571Z,9.88
2018-08-31T11:31:02.128Z,10.20
2018-08-31T11:35:48.858Z,9.20
2018-08-31T11:40:32.289Z,19.30
2018-08-31T11:45:19.435Z,27.07
2018-08-31T11:50:02.774Z,8.98
2018-08-31T11:54:51.730Z,11.53
2018-08-31T11:59:35.209Z,11.30
2018-08-31T12:04:22.652Z,9.78
2018-08-31T12:09:08.915Z,9.85
2018-08-31T12:13:56.463Z,8.58
2018-08-31T12:18:39.798Z,9.35
2018-08-31T12:23:28.864Z,10.53
2018-08-31T12:28:12.267Z,10.13
2018-08-31T12:32:55.661Z,8.00
2018-08-31T12:37:48.942Z,14.07
2018-08-31T12:42:32.837Z,9.20
2018-08-31T12:47:21.130Z,12.37
2018-08-31T12:52:04.607Z,8.33
2018-08-31T12:56:53.540Z,8.83
2018-08-31T13:01:36.850Z,8.78
2018-08-31T13:06:26.242Z,10.55
2018-08-31T13:11:09.735Z,11.63
2018-08-31T13:15:57.008Z,10.35
2018-08-31T13:20:41.462Z,11.22
2018-08-31T13:25:30.403Z,12.23
2018-08-31T13:30:13.847Z,9.48
2018-08-31T13:34:57.483Z,11.83
2018-08-31T13:39:40.820Z,15.08
2018-08-31T13:44:27.190Z,12.18
2018-08-31T13:49:10.633Z,8.45
2018-08-31T13:53:57.877Z,12.10
2018-08-31T13:58:41.137Z,10.95
2018-08-31T14:03:27.598Z,13.00
2018-08-31T14:08:11.018Z,12.73
2018-08-31T14:12:54.400Z,9.33
2018-08-31T14:17:37.993Z,11.12
2018-08-31T14:22:21.397Z,8.85
2018-08-31T14:27:08.368Z,9.98
2018-08-31T14:31:51.795Z,14.07
2018-08-31T14:36:45.093Z,9.50
2018-08-31T14:41:33.145Z,8.78
2018-08-31T14:46:26.937Z,13.43
2018-08-31T14:51:10.262Z,10.05
2018-08-31T14:55:57.155Z,14.00
2018-08-31T15:00:40.670Z,10.30
2018-08-31T15:05:28.401Z,9.10
2018-08-31T15:10:13.972Z,11.22
2018-08-31T15:14:58.290Z,10.13
2018-08-31T15:19:41.735Z,11.48
2018-08-31T15:24:25.186Z,8.80
2018-08-31T15:29:08.658Z,12.20
2018-08-31T15:33:53.021Z,9.03
2018-08-31T15:38:36.533Z,10.87
2018-08-31T15:43:23.967Z,8.68
2018-08-31T15:48:07.376Z,9.73
2018-08-31T15:52:54.113Z,9.97
2018-08-31T15:57:37.486Z,10.00
2018-08-31T16:02:20.824Z,10.87
2018-08-31T16:07:06.007Z,11.77
2018-08-31T16:11:49.461Z,9.37
2018-08-31T16:16:33.089Z,10.70
2018-08-31T16:21:16.533Z,23.23
2018-08-31T16:26:03.459Z,9.43
2018-08-31T16:30:46.886Z,11.97
2018-08-31T16:35:31.566Z,20.80
2018-08-31T16:40:14.968Z,16.03
2018-08-31T16:44:58.326Z,13.27
2018-08-31T16:49:41.848Z,11.40
2018-08-31T16:54:29.164Z,9.23
2018-08-31T16:59:12.512Z,15.60
2018-08-31T17:03:59.303Z,20.03
2018-08-31T17:08:42.924Z,18.73
2018-08-31T17:13:26.673Z,18.23
2018-08-31T17:18:10.357Z,22.13
2018-08-31T17:22:59.075Z,16.87
2018-08-31T17:27:47.931Z,18.93
2018-08-31T17:32:36.897Z,9.03
2018-08-31T17:37:26.008Z,9.23
2018-08-31T17:42:14.861Z,11.47
2018-08-31T17:47:07.542Z,11.27
2018-08-31T17:51:51.899Z,10.43
2018-08-31T17:56:37.055Z,12.63
2018-08-31T18:01:20.530Z,9.50
2018-08-31T18:06:14.052Z,16.67
2018-08-31T18:10:57.910Z,11.30
2018-08-31T18:15:42.624Z,8.67
2018-08-31T18:20:26.079Z,9.43
2018-08-31T18:25:12.694Z,9.53
2018-08-31T18:29:56.170Z,10.37
2018-08-31T18:34:42.925Z,13.67
2018-08-31T18:39:35.588Z,10.60
2018-08-31T18:44:20.259Z,10.83
2018-08-31T18:49:10.567Z,11.50
2018-08-31T18:53:54.318Z,9.70
2018-08-31T18:58:38.364Z,9.43
2018-08-31T19:03:25.085Z,8.23
2018-08-31T19:08:08.637Z,7.70
2018-08-31T19:12:56.047Z,9.70
2018-08-31T19:17:39.391Z,9.27
2018-08-31T19:22:23.167Z,9.90
2018-08-31T19:27:06.720Z,10.53
2018-08-31T19:31:52.095Z,10.87
2018-08-31T19:36:36.078Z,12.93
2018-08-31T19:41:20.050Z,9.80
2018-08-31T19:46:03.789Z,9.37
2018-08-31T19:50:47.271Z,9.07
2018-08-31T19:55:34.406Z,8.73
2018-08-31T20:00:17.823Z,13.43
2018-08-31T20:05:01.451Z,12.43
2018-08-31T20:09:45.023Z,12.20
2018-08-31T20:14:28.570Z,9.00
2018-08-31T20:19:12.061Z,9.30
2018-08-31T20:23:59.184Z,9.93
2018-08-31T20:28:42.579Z,11.57
2018-08-31T20:33:27.382Z,11.27
2018-08-31T20:38:10.839Z,8.03
2018-08-31T20:42:54.402Z,10.63
2018-08-31T20:47:37.875Z,12.27
2018-08-31T20:52:27.285Z,7.97
2018-08-31T20:57:10.759Z,8.17
2018-08-31T21:01:54.204Z,12.03
2018-08-31T21:06:37.828Z,11.13
2018-08-31T21:11:21.382Z,8.20
2018-08-31T21:16:05.199Z,8.87
2018-08-31T21:20:48.655Z,8.83
2018-08-31T21:25:35.850Z,14.70
2018-08-31T21:30:20.035Z,9.23
2018-08-31T21:35:03.645Z,11.47
2018-08-31T21:39:47.031Z,9.27
2018-08-31T21:44:31.487Z,7.63
2018-08-31T21:49:15.620Z,23.97
2018-08-31T21:54:00.659Z,9.40
2018-08-31T21:58:44.625Z,8.80
2018-08-31T22:03:29.416Z,10.43
2018-08-31T22:08:12.958Z,9.43
2018-08-31T22:12:57.676Z,11.43
2018-08-31T22:17:41.258Z,11.23
2018-08-31T22:22:26.021Z,12.37
2018-08-31T22:27:09.509Z,13.70
2018-08-31T22:31:54.228Z,17.27
2018-08-31T22:36:37.741Z,13.20
2018-08-31T22:41:21.198Z,10.30
2018-08-31T22:46:08.203Z,16.27
2018-08-31T22:50:51.953Z,15.67
2018-08-31T22:55:35.999Z,17.70
2018-08-31T23:00:19.394Z,14.93
2018-08-31T23:05:04.674Z,11.70
2018-08-31T23:09:48.025Z,11.97
2018-08-31T23:14:31.678Z,15.70
2018-08-31T23:19:15.023Z,16.27
2018-08-31T23:25:28.527Z,18.30
2018-08-31T23:30:12.008Z,17.17
2018-08-31T23:34:56.267Z,15.80
2018-08-31T23:39:39.698Z,14.67
2018-08-31T23:44:27.054Z,15.00
2018-08-31T23:49:10.442Z,13.20
2018-08-31T23:53:57.786Z,16.10
2018-08-31T23:58:41.261Z,10.77
